createdAt,value
2022-07-25T00:01:20.623Z,38.05
2022-07-25T00:03:48.879Z,38.18
2022-07-25T00:06:17.855Z,38.42
2022-07-25T00:08:46.040Z,38.45
2022-07-25T00:11:13.990Z,38.00
2022-07-25T00:13:42.559Z,38.41
2022-07-25T00:16:21.310Z,38.19
2022-07-25T00:18:49.673Z,38.52
2022-07-25T00:21:17.964Z,38.62
2022-07-25T00:23:45.938Z,38.87
2022-07-25T00:26:14.530Z,38.46
2022-07-25T00:28:42.557Z,38.80
2022-07-25T00:31:11.269Z,39.06
2022-07-25T00:33:41.249Z,38.84
2022-07-25T00:36:10.038Z,39.14
2022-07-25T00:38:37.931Z,39.54
2022-07-25T00:41:06.574Z,39.55
2022-07-25T00:43:35.827Z,39.30
2022-07-25T00:46:03.980Z,39.61
2022-07-25T00:48:32.466Z,39.55
2022-07-25T00:51:01.989Z,39.83
2022-07-25T00:53:30.060Z,40.00
2022-07-25T00:55:58.878Z,40.03
2022-07-25T00:58:26.943Z,40.30
2022-07-25T01:00:55.037Z,40.55
2022-07-25T01:03:23.242Z,40.73
2022-07-25T01:05:53.890Z,40.81
2022-07-25T01:08:23.983Z,40.75
2022-07-25T01:10:51.905Z,40.77
2022-07-25T01:13:20.901Z,40.79
2022-07-25T01:15:49.010Z,40.73
2022-07-25T01:18:17.077Z,41.16
2022-07-25T01:20:46.633Z,40.99
2022-07-25T01:23:14.658Z,40.89
2022-07-25T01:25:42.789Z,40.92
2022-07-25T01:28:10.897Z,41.07
2022-07-25T01:30:38.878Z,41.19
2022-07-25T01:33:07.319Z,41.34
2022-07-25T01:35:37.980Z,41.49
2022-07-25T01:38:10.947Z,41.89
2022-07-25T01:40:39.371Z,41.87
2022-07-25T01:43:08.002Z,41.80
2022-07-25T01:45:36.112Z,42.05
2022-07-25T01:48:04.280Z,42.06
2022-07-25T01:50:32.214Z,42.13
2022-07-25T01:53:00.125Z,42.02
2022-07-25T01:55:29.939Z,41.79
2022-07-25T01:57:59.548Z,41.59
2022-07-25T02:00:27.652Z,41.70
2022-07-25T02:03:09.662Z,41.63
2022-07-25T02:05:37.741Z,41.53
2022-07-25T02:08:06.013Z,41.51
2022-07-25T02:10:35.267Z,41.55
2022-07-25T02:13:03.759Z,41.50
2022-07-25T02:15:32.033Z,41.87
2022-07-25T02:17:59.978Z,42.04
2022-07-25T02:20:28.077Z,41.82
2022-07-25T02:22:56.269Z,41.81
2022-07-25T02:25:24.210Z,41.78
2022-07-25T02:27:53.566Z,41.84
2022-07-25T02:30:21.470Z,42.22
2022-07-25T02:32:49.428Z,42.21
2022-07-25T02:35:17.329Z,42.11
2022-07-25T02:37:45.452Z,42.03
2022-07-25T02:40:13.742Z,42.06
2022-07-25T02:42:41.761Z,42.43
2022-07-25T02:45:12.270Z,42.49
2022-07-25T02:47:40.227Z,42.56
2022-07-25T02:50:09.166Z,42.36
2022-07-25T02:52:42.657Z,42.44
2022-07-25T02:55:11.730Z,42.42
2022-07-25T02:57:39.919Z,42.55
2022-07-25T03:00:09.100Z,42.78
2022-07-25T03:02:38.665Z,43.04
2022-07-25T03:05:08.276Z,43.15
2022-07-25T03:07:37.187Z,42.95
2022-07-25T03:10:08.883Z,42.92
2022-07-25T03:12:40.562Z,42.62
2022-07-25T03:15:10.153Z,42.98
2022-07-25T03:17:39.832Z,43.08
2022-07-25T03:20:08.636Z,43.41
2022-07-25T03:22:36.955Z,43.28
2022-07-25T03:25:05.537Z,43.56
2022-07-25T03:27:43.308Z,43.81
2022-07-25T03:30:12.693Z,43.99
2022-07-25T03:32:42.339Z,44.00
2022-07-25T03:35:10.901Z,44.08
2022-07-25T03:37:38.793Z,44.33
2022-07-25T03:40:08.200Z,44.34
2022-07-25T03:42:36.373Z,44.42
2022-07-25T03:45:04.872Z,43.88
2022-07-25T03:47:32.788Z,43.81
2022-07-25T03:50:02.437Z,43.87
2022-07-25T03:52:30.434Z,43.87
2022-07-25T03:54:58.322Z,43.98
2022-07-25T03:57:26.262Z,44.09
2022-07-25T03:59:54.157Z,44.39
2022-07-25T04:02:22.199Z,44.45
2022-07-25T04:04:50.094Z,44.57
2022-07-25T04:07:19.438Z,44.35
2022-07-25T04:09:47.385Z,44.05
2022-07-25T04:12:15.398Z,44.31
2022-07-25T04:14:43.305Z,44.28
2022-07-25T04:17:11.228Z,44.12
2022-07-25T04:19:39.373Z,44.03
2022-07-25T04:22:07.299Z,44.13
2022-07-25T04:24:36.619Z,44.14
2022-07-25T04:27:04.766Z,44.53
2022-07-25T04:29:32.831Z,44.72
2022-07-25T04:32:00.863Z,44.74
2022-07-25T04:34:28.917Z,45.26
2022-07-25T04:36:56.900Z,45.06
2022-07-25T04:39:24.799Z,45.04
2022-07-25T04:41:54.097Z,44.78
2022-07-25T04:44:22.047Z,44.92
2022-07-25T04:46:49.971Z,44.53
2022-07-25T04:49:18.071Z,44.27
2022-07-25T04:51:46.153Z,44.20
2022-07-25T04:54:14.089Z,43.84
2022-07-25T04:56:41.962Z,44.00
2022-07-25T04:59:11.261Z,43.78
2022-07-25T05:01:39.213Z,43.67
2022-07-25T05:04:07.582Z,43.42
2022-07-25T05:06:35.688Z,42.94
2022-07-25T05:09:03.668Z,42.84
2022-07-25T05:11:31.585Z,43.01
2022-07-25T05:13:59.562Z,42.58
2022-07-25T05:16:28.901Z,42.23
2022-07-25T05:18:56.831Z,42.08
2022-07-25T05:21:24.853Z,42.25
2022-07-25T05:23:52.749Z,42.14
2022-07-25T05:26:20.812Z,42.40
2022-07-25T05:28:48.729Z,42.30
2022-07-25T05:31:16.733Z,42.36
2022-07-25T05:33:46.084Z,42.09
2022-07-25T05:36:14.333Z,42.29
2022-07-25T05:38:42.259Z,42.43
2022-07-25T05:41:10.323Z,42.35
2022-07-25T05:43:38.250Z,42.59
2022-07-25T05:46:06.884Z,42.32
2022-07-25T05:48:34.857Z,42.35
2022-07-25T05:51:04.647Z,42.74
2022-07-25T05:53:32.675Z,43.19
2022-07-25T05:56:00.699Z,43.44
2022-07-25T05:58:30.026Z,44.06
2022-07-25T06:00:58.421Z,43.97
2022-07-25T06:03:26.803Z,44.23
2022-07-25T06:05:56.297Z,44.26
2022-07-25T06:08:28.559Z,44.20
2022-07-25T06:10:57.431Z,44.03
2022-07-25T06:13:25.903Z,44.02
2022-07-25T06:15:56.146Z,43.66
2022-07-25T06:18:26.118Z,43.23
2022-07-25T06:20:54.456Z,42.90
2022-07-25T06:23:22.753Z,42.62
2022-07-25T06:25:57.028Z,42.40
2022-07-25T06:28:25.009Z,42.32
2022-07-25T06:30:53.272Z,42.10
2022-07-25T06:33:21.519Z,41.99
2022-07-25T06:35:49.524Z,41.70
2022-07-25T06:38:17.486Z,41.49
2022-07-25T06:40:45.426Z,41.46
2022-07-25T06:43:14.913Z,41.19
2022-07-25T06:45:46.967Z,41.23
2022-07-25T06:48:14.928Z,41.25
2022-07-25T06:50:43.326Z,40.98
2022-07-25T06:53:11.329Z,40.69
2022-07-25T06:55:39.382Z,40.73
2022-07-25T06:58:07.314Z,40.64
2022-07-25T07:00:36.627Z,40.74
2022-07-25T07:03:05.018Z,40.45
2022-07-25T07:05:34.769Z,40.45
2022-07-25T07:08:02.862Z,40.27
2022-07-25T07:10:31.106Z,39.99
2022-07-25T07:13:09.645Z,39.97
2022-07-25T07:15:39.937Z,40.11
2022-07-25T07:18:08.000Z,39.83
2022-07-25T07:20:36.345Z,39.61
2022-07-25T07:23:04.558Z,39.59
2022-07-25T07:25:34.257Z,39.29
2022-07-25T07:28:02.214Z,39.48
2022-07-25T07:30:52.483Z,39.35
2022-07-25T07:33:19.503Z,39.38
2022-07-25T07:35:47.503Z,39.61
2022-07-25T07:38:15.653Z,39.22
2022-07-25T07:40:43.581Z,39.07
2022-07-25T07:43:11.494Z,38.87
2022-07-25T07:45:39.402Z,38.72
2022-07-25T07:48:08.299Z,38.39
2022-07-25T07:50:37.800Z,38.32
2022-07-25T07:53:06.738Z,38.75
2022-07-25T07:55:45.975Z,38.69
2022-07-25T07:58:16.641Z,38.85
2022-07-25T08:00:46.388Z,38.60
2022-07-25T08:03:15.056Z,38.72
2022-07-25T08:05:45.974Z,38.42
2022-07-25T08:08:15.962Z,38.31
2022-07-25T08:10:45.780Z,38.44
2022-07-25T08:13:15.282Z,38.17
2022-07-25T08:15:44.162Z,38.52
2022-07-25T08:18:17.519Z,38.26
2022-07-25T08:20:48.580Z,38.27
2022-07-25T08:23:17.197Z,38.45
2022-07-25T08:25:46.280Z,38.21
2022-07-25T08:28:18.852Z,38.07
2022-07-25T08:30:47.300Z,38.18
2022-07-25T08:33:16.724Z,37.90
2022-07-25T08:35:49.641Z,37.41
2022-07-25T08:38:18.194Z,37.49
2022-07-25T08:40:46.734Z,37.43
2022-07-25T08:43:15.835Z,37.53
2022-07-25T08:45:47.189Z,37.04
2022-07-25T08:48:15.573Z,36.86
2022-07-25T08:50:44.132Z,36.88
2022-07-25T08:53:32.746Z,36.81
2022-07-25T08:56:05.297Z,36.32
2022-07-25T08:58:38.486Z,36.50
2022-07-25T09:01:07.095Z,36.38
2022-07-25T09:03:40.359Z,36.60
2022-07-25T09:06:16.929Z,36.98
2022-07-25T09:08:54.375Z,36.72
2022-07-25T09:11:33.625Z,37.10
2022-07-25T09:14:05.311Z,36.95
2022-07-25T09:16:35.403Z,36.50
2022-07-25T09:19:08.389Z,36.21
2022-07-25T09:21:36.427Z,36.37
2022-07-25T09:24:15.952Z,36.40
2022-07-25T09:26:49.175Z,36.38
2022-07-25T09:29:18.974Z,36.19
2022-07-25T09:31:47.162Z,36.08
2022-07-25T09:34:20.913Z,36.16
2022-07-25T09:36:55.072Z,35.78
2022-07-25T09:39:34.391Z,35.39
2022-07-25T09:42:02.598Z,35.29
2022-07-25T09:44:30.896Z,34.79
2022-07-25T09:46:59.877Z,34.50
2022-07-25T09:49:38.103Z,34.17
2022-07-25T09:52:07.463Z,34.29
2022-07-25T09:54:37.224Z,34.55
2022-07-25T09:57:05.535Z,34.66
2022-07-25T09:59:34.373Z,34.23
2022-07-25T10:02:09.391Z,34.14
2022-07-25T10:04:46.378Z,33.89
2022-07-25T10:07:17.426Z,33.82
2022-07-25T10:09:49.485Z,33.62
2022-07-25T10:12:21.125Z,33.71
2022-07-25T10:15:05.922Z,33.96
2022-07-25T10:17:34.216Z,33.93
2022-07-25T10:20:03.844Z,33.75
2022-07-25T10:22:58.081Z,33.86
2022-07-25T10:25:28.359Z,33.88
2022-07-25T10:28:02.893Z,33.98
2022-07-25T10:30:36.841Z,33.95
2022-07-25T10:33:06.945Z,33.89
2022-07-25T10:35:35.164Z,33.54
2022-07-25T10:38:05.771Z,33.33
2022-07-25T10:40:38.016Z,32.82
2022-07-25T10:43:10.893Z,32.88
2022-07-25T10:45:40.975Z,32.70
2022-07-25T10:48:22.170Z,33.02
2022-07-25T10:50:58.574Z,32.62
2022-07-25T10:53:33.356Z,32.66
2022-07-25T10:56:07.545Z,32.86
2022-07-25T10:58:47.054Z,32.68
2022-07-25T11:01:15.891Z,32.58
2022-07-25T11:03:45.652Z,32.48
2022-07-25T11:06:15.159Z,32.69
2022-07-25T11:08:43.985Z,32.61
2022-07-25T11:11:14.526Z,32.02
2022-07-25T11:13:44.412Z,31.98
2022-07-25T11:16:12.516Z,31.97
2022-07-25T11:18:42.615Z,32.15
2022-07-25T11:21:10.786Z,32.59
2022-07-25T11:23:38.732Z,32.35
2022-07-25T11:26:08.355Z,32.46
2022-07-25T11:28:46.419Z,32.58
2022-07-25T11:31:16.061Z,32.68
2022-07-25T11:33:47.530Z,32.17
2022-07-25T11:36:16.314Z,32.25
2022-07-25T11:38:49.183Z,32.28
2022-07-25T11:41:17.098Z,32.11
2022-07-25T11:43:50.949Z,32.36
2022-07-25T11:46:19.303Z,31.99
2022-07-25T11:48:48.163Z,31.44
2022-07-25T11:51:19.419Z,31.06
2022-07-25T11:53:49.814Z,31.38
2022-07-25T11:56:41.285Z,31.47
2022-07-25T11:59:10.036Z,31.20
2022-07-25T12:01:40.350Z,31.28
2022-07-25T12:04:14.224Z,31.08
2022-07-25T12:06:42.629Z,30.55
2022-07-25T12:09:18.943Z,30.49
2022-07-25T12:11:48.889Z,30.33
2022-07-25T12:14:18.492Z,30.93
2022-07-25T12:16:46.689Z,30.92
2022-07-25T12:19:22.782Z,30.41
2022-07-25T12:21:50.838Z,29.64
2022-07-25T12:24:18.938Z,29.66
2022-07-25T12:26:47.022Z,29.61
2022-07-25T12:29:15.017Z,29.19
2022-07-25T12:31:44.275Z,28.74
2022-07-25T12:34:12.255Z,28.01
2022-07-25T12:36:43.971Z,28.15
2022-07-25T12:42:25.823Z,27.13
2022-07-25T12:44:53.809Z,27.43
2022-07-25T12:47:24.105Z,27.58
2022-07-25T12:49:54.525Z,27.09
2022-07-25T12:52:23.075Z,27.59
2022-07-25T12:54:51.000Z,27.12
2022-07-25T12:57:20.661Z,26.64
2022-07-25T12:59:48.867Z,26.73
2022-07-25T13:02:16.869Z,26.34
2022-07-25T13:04:49.003Z,26.43
2022-07-25T13:07:17.467Z,26.27
2022-07-25T13:09:45.422Z,25.77
2022-07-25T13:12:16.372Z,25.88
2022-07-25T13:14:44.742Z,26.29
2022-07-25T13:17:12.832Z,26.20
2022-07-25T13:19:40.900Z,26.41
2022-07-25T13:22:10.385Z,26.07
2022-07-25T13:24:39.292Z,25.97
2022-07-25T13:27:07.664Z,25.96
2022-07-25T13:29:36.474Z,26.16
2022-07-25T13:32:04.533Z,26.42
2022-07-25T13:34:34.191Z,26.20
2022-07-25T13:37:02.369Z,26.29
2022-07-25T13:39:31.877Z,26.33
2022-07-25T13:41:59.879Z,26.14
2022-07-25T13:44:27.782Z,26.26
2022-07-25T13:46:55.656Z,25.64
2022-07-25T13:49:23.699Z,25.27
2022-07-25T13:51:51.910Z,25.22
2022-07-25T13:54:19.884Z,25.25
2022-07-25T13:56:49.258Z,25.92
2022-07-25T13:59:21.153Z,25.77
2022-07-25T14:01:50.475Z,25.66
2022-07-25T14:04:18.900Z,24.86
2022-07-25T14:06:51.691Z,25.43
2022-07-25T14:09:20.864Z,24.95
2022-07-25T14:11:50.114Z,24.79
2022-07-25T14:14:18.483Z,24.70
2022-07-25T14:16:46.590Z,24.62
2022-07-25T14:19:14.737Z,24.71
2022-07-25T14:21:42.796Z,24.54
2022-07-25T14:24:10.809Z,24.23
2022-07-25T14:26:39.285Z,24.43
2022-07-25T14:29:11.201Z,25.00
2022-07-25T14:31:40.838Z,24.52
2022-07-25T14:34:09.130Z,24.41
2022-07-25T14:36:37.262Z,24.03
2022-07-25T14:39:06.039Z,23.82
2022-07-25T14:41:35.055Z,23.90
2022-07-25T14:44:05.258Z,23.61
2022-07-25T14:46:35.680Z,23.68
2022-07-25T14:49:04.246Z,23.41
2022-07-25T14:51:32.983Z,23.02
2022-07-25T14:54:01.138Z,23.42
2022-07-25T14:56:30.822Z,23.00
2022-07-25T14:58:59.411Z,22.99
2022-07-25T15:01:33.365Z,22.96
2022-07-25T15:04:37.557Z,22.93
2022-07-25T15:07:17.351Z,23.19
2022-07-25T15:09:46.483Z,22.86
2022-07-25T15:12:16.758Z,22.94
2022-07-25T15:14:45.418Z,22.80
2022-07-25T15:17:13.997Z,22.16
2022-07-25T15:19:43.457Z,22.40
2022-07-25T15:22:11.523Z,22.62
2022-07-25T15:25:13.937Z,22.33
2022-07-25T15:27:28.005Z,22.33
2022-07-25T15:29:56.062Z,22.58
2022-07-25T15:32:24.152Z,22.97
2022-07-25T15:34:56.642Z,22.44
2022-07-25T15:37:24.857Z,22.95
2022-07-25T15:39:52.965Z,23.04
2022-07-25T15:42:22.646Z,22.45
2022-07-25T15:45:15.149Z,22.71
2022-07-25T15:47:43.423Z,22.60
2022-07-25T15:50:14.637Z,22.90
2022-07-25T15:52:42.780Z,22.89
2022-07-25T15:55:11.002Z,23.13
2022-07-25T15:57:39.443Z,22.92
2022-07-25T16:00:09.345Z,23.13
2022-07-25T16:02:37.459Z,22.77
2022-07-25T16:05:06.081Z,22.59
2022-07-25T16:07:35.749Z,22.66
2022-07-25T16:10:04.200Z,22.71
2022-07-25T16:12:32.230Z,22.50
2022-07-25T16:15:00.458Z,22.74
2022-07-25T16:17:28.690Z,22.90
2022-07-25T16:19:56.959Z,23.22
2022-07-25T16:22:25.339Z,23.17
2022-07-25T16:24:54.843Z,23.48
2022-07-25T16:27:23.233Z,23.12
2022-07-25T16:29:51.314Z,23.06
2022-07-25T16:32:20.782Z,23.01
2022-07-25T16:34:49.442Z,23.30
2022-07-25T16:37:17.548Z,23.28
2022-07-25T16:39:47.637Z,23.23
2022-07-25T16:42:17.053Z,23.09
2022-07-25T16:44:47.785Z,23.38
2022-07-25T16:47:16.150Z,23.27
2022-07-25T16:49:44.156Z,23.68
2022-07-25T16:52:12.206Z,23.54
2022-07-25T16:54:43.088Z,23.87
2022-07-25T16:57:11.909Z,24.11
2022-07-25T16:59:41.229Z,23.79
2022-07-25T17:02:09.796Z,23.85
2022-07-25T17:04:38.052Z,23.92
2022-07-25T17:07:06.181Z,23.86
2022-07-25T17:09:34.248Z,23.61
2022-07-25T17:12:02.264Z,23.78
2022-07-25T17:14:30.485Z,23.55
2022-07-25T17:17:00.005Z,23.65
2022-07-25T17:19:28.008Z,23.36
2022-07-25T17:21:55.942Z,23.48
2022-07-25T17:24:23.906Z,24.05
2022-07-25T17:26:52.024Z,24.05
2022-07-25T17:29:20.150Z,24.38
2022-07-25T17:31:48.417Z,24.32
2022-07-25T17:34:18.007Z,24.76
2022-07-25T17:36:46.115Z,25.20
2022-07-25T17:39:14.233Z,25.50
2022-07-25T17:41:42.317Z,25.63
2022-07-25T17:44:12.294Z,25.52
2022-07-25T17:46:40.585Z,26.19
2022-07-25T17:49:08.692Z,26.09
2022-07-25T17:51:38.320Z,26.52
2022-07-25T17:54:06.748Z,26.71
2022-07-25T17:56:35.057Z,26.96
2022-07-25T17:59:03.408Z,27.07
2022-07-25T18:01:31.383Z,27.35
2022-07-25T18:03:59.365Z,27.78
2022-07-25T18:06:29.881Z,28.09
2022-07-25T18:08:59.562Z,28.75
2022-07-25T18:11:27.838Z,28.82
2022-07-25T18:13:55.910Z,28.85
2022-07-25T18:16:24.331Z,29.25
2022-07-25T18:18:52.468Z,29.38
2022-07-25T18:21:20.700Z,29.63
2022-07-25T18:23:48.774Z,29.79
2022-07-25T18:26:19.083Z,30.15
2022-07-25T18:28:47.463Z,30.41
2022-07-25T18:31:15.744Z,30.35
2022-07-25T18:33:44.097Z,30.87
2022-07-25T18:36:12.381Z,30.98
2022-07-25T18:38:40.616Z,31.34
2022-07-25T18:43:58.769Z,31.80
2022-07-25T18:46:30.187Z,32.07
2022-07-25T18:49:18.565Z,32.42
2022-07-25T18:51:54.408Z,32.43
2022-07-25T18:54:22.657Z,32.62
2022-07-25T18:56:51.197Z,33.15
2022-07-25T18:59:21.134Z,33.25
2022-07-25T19:01:54.058Z,33.13
2022-07-25T19:04:22.517Z,33.20
2022-07-25T19:06:53.391Z,33.10
2022-07-25T19:09:24.225Z,33.31
2022-07-25T19:11:52.632Z,33.83
2022-07-25T19:14:24.014Z,34.05
2022-07-25T19:16:52.283Z,33.73
2022-07-25T19:19:20.621Z,33.88
2022-07-25T19:21:49.099Z,34.25
2022-07-25T19:24:17.900Z,33.92
2022-07-25T19:26:48.299Z,34.55
2022-07-25T19:29:18.057Z,34.58
2022-07-25T19:31:47.569Z,34.77
2022-07-25T19:34:15.631Z,34.40
2022-07-25T19:36:45.926Z,34.95
2022-07-25T19:39:14.313Z,34.98
2022-07-25T19:41:46.864Z,34.49
2022-07-25T19:44:15.579Z,34.98
2022-07-25T19:46:43.654Z,34.94
2022-07-25T19:49:13.368Z,34.68
2022-07-25T19:51:41.425Z,34.99
2022-07-25T19:54:09.987Z,35.12
2022-07-25T19:56:38.285Z,35.36
2022-07-25T19:59:06.258Z,34.83
2022-07-25T20:01:35.996Z,34.92
2022-07-25T20:04:05.663Z,34.98
2022-07-25T20:06:36.037Z,35.34
2022-07-25T20:09:05.352Z,35.33
2022-07-25T20:11:33.758Z,35.34
2022-07-25T20:14:02.124Z,35.59
2022-07-25T20:16:30.751Z,36.09
2022-07-25T20:19:00.240Z,36.34
2022-07-25T20:21:28.372Z,36.12
2022-07-25T20:23:58.246Z,36.72
2022-07-25T20:26:26.993Z,36.62
2022-07-25T20:28:55.252Z,37.41
2022-07-25T20:31:24.366Z,36.89
2022-07-25T20:33:53.150Z,37.31
2022-07-25T20:36:21.479Z,37.14
2022-07-25T20:38:49.485Z,37.64
2022-07-25T20:41:19.240Z,37.67
2022-07-25T20:43:47.211Z,37.75
2022-07-25T20:46:15.341Z,38.10
2022-07-25T20:48:43.472Z,37.85
2022-07-25T20:51:12.474Z,37.69
2022-07-25T20:53:41.800Z,37.50
2022-07-25T20:56:09.953Z,37.77
2022-07-25T20:58:39.241Z,37.86
2022-07-25T21:01:07.317Z,38.01
2022-07-25T21:03:36.600Z,38.14
2022-07-25T21:06:05.480Z,38.00
2022-07-25T21:08:33.657Z,38.04
2022-07-25T21:11:01.735Z,38.04
2022-07-25T21:13:30.862Z,37.87
2022-07-25T21:16:02.841Z,37.74
2022-07-25T21:18:30.948Z,37.67
2022-07-25T21:20:59.466Z,37.29
2022-07-25T21:23:27.702Z,37.29
2022-07-25T21:25:55.830Z,37.18
2022-07-25T21:28:24.035Z,37.20
2022-07-25T21:30:54.172Z,37.29
2022-07-25T21:33:23.525Z,37.37
2022-07-25T21:35:53.685Z,37.67
2022-07-25T21:38:26.702Z,37.80
2022-07-25T21:40:55.802Z,38.00
2022-07-25T21:43:24.180Z,37.84
2022-07-25T21:45:52.506Z,37.94
2022-07-25T21:48:40.746Z,37.85
2022-07-25T21:51:19.371Z,37.65
2022-07-25T21:53:51.679Z,37.66
2022-07-25T21:56:20.215Z,37.96
2022-07-25T21:58:48.898Z,38.10
2022-07-25T22:01:17.412Z,38.00
2022-07-25T22:03:45.442Z,38.28
2022-07-25T22:06:14.788Z,38.37
2022-07-25T22:08:42.712Z,39.17
2022-07-25T22:11:15.861Z,39.19
2022-07-25T22:13:48.931Z,39.83
2022-07-25T22:16:17.237Z,39.51
2022-07-25T22:18:45.243Z,39.69
2022-07-25T22:21:15.822Z,39.76
2022-07-25T22:23:44.144Z,39.87
2022-07-25T22:26:12.080Z,40.15
2022-07-25T22:28:40.060Z,39.98
2022-07-25T22:31:08.231Z,40.03
2022-07-25T22:33:38.151Z,39.95
2022-07-25T22:36:07.194Z,39.88
2022-07-25T22:38:36.833Z,39.79
2022-07-25T22:41:04.757Z,39.64
2022-07-25T22:43:57.040Z,39.76
2022-07-25T22:46:20.657Z,39.78
2022-07-25T22:48:48.594Z,39.63
2022-07-25T22:51:16.746Z,39.36
2022-07-25T22:53:46.106Z,39.33
2022-07-25T22:56:14.097Z,39.30
2022-07-25T22:58:42.101Z,39.19
2022-07-25T23:01:10.917Z,39.20
2022-07-25T23:03:38.930Z,39.37
2022-07-25T23:06:07.242Z,39.98
2022-07-25T23:08:35.125Z,40.50
2022-07-25T23:11:06.092Z,40.86
2022-07-25T23:13:34.341Z,40.96
2022-07-25T23:16:03.222Z,40.62
2022-07-25T23:18:31.647Z,40.94
2022-07-25T23:21:00.049Z,40.93
2022-07-25T23:23:28.396Z,41.16
2022-07-25T23:25:56.397Z,40.71
2022-07-25T23:28:25.671Z,40.75
2022-07-25T23:30:53.640Z,40.45
2022-07-25T23:33:25.311Z,40.05
2022-07-25T23:35:54.032Z,40.21
2022-07-25T23:38:22.558Z,40.32
2022-07-25T23:40:50.698Z,40.45
2022-07-25T23:43:47.249Z,40.29
2022-07-25T23:46:08.079Z,40.17
2022-07-25T23:48:36.169Z,39.85
2022-07-25T23:51:04.249Z,40.17
2022-07-25T23:53:34.838Z,40.67
2022-07-25T23:56:02.759Z,41.22
2022-07-25T23:58:30.632Z,41.93
